sensor_id;sensor_type;location;lat;lon;timestamp;pressure;altitude;pressure_sealevel;temperature;humidity
65557;BME280;52200;53.490;14.376;2023-03-26T00:01:51;99784.03;;;7.10;100.00
65557;BME280;52200;53.490;14.376;2023-03-26T00:04:16;99789.38;;;7.00;100.00
65557;BME280;52200;53.490;14.376;2023-03-26T00:06:44;99785.13;;;7.02;100.00
65557;BME280;52200;53.490;14.376;2023-03-26T00:09:14;99786.38;;;6.87;100.00
65557;BME280;52200;53.490;14.376;2023-03-26T00:11:41;99790.13;;;7.03;100.00
65557;BME280;52200;53.490;14.376;2023-03-26T00:14:06;99792.19;;;7.19;100.00
65557;BME280;52200;53.490;14.376;2023-03-26T00:16:34;99795.63;;;7.18;100.00
65557;BME280;52200;53.490;14.376;2023-03-26T00:19:00;99798.16;;;7.16;99.65
65557;BME280;52200;53.490;14.376;2023-03-26T00:21:27;99793.84;;;7.20;100.00
65557;BME280;52200;53.490;14.376;2023-03-26T00:23:56;99793.84;;;7.20;100.00
65557;BME280;52200;53.490;14.376;2023-03-26T00:26:24;99796.78;;;7.06;100.00
65557;BME280;52200;53.490;14.376;2023-03-26T00:28:49;99795.53;;;7.21;100.00
65557;BME280;52200;53.490;14.376;2023-03-26T00:31:15;99792.88;;;7.25;100.00
65557;BME280;52200;53.490;14.376;2023-03-26T00:33:41;99796.38;;;7.20;99.94
65557;BME280;52200;53.490;14.376;2023-03-26T00:36:11;99796.84;;;7.03;99.93
65557;BME280;52200;53.490;14.376;2023-03-26T00:38:42;99790.41;;;6.92;100.00
65557;BME280;52200;53.490;14.376;2023-03-26T00:41:10;99795.16;;;7.03;100.00
65557;BME280;52200;53.490;14.376;2023-03-26T00:43:43;99784.44;;;6.95;100.00
65557;BME280;52200;53.490;14.376;2023-03-26T00:46:10;99790.06;;;7.05;100.00
65557;BME280;52200;53.490;14.376;2023-03-26T00:48:35;99788.25;;;6.78;100.00
65557;BME280;52200;53.490;14.376;2023-03-26T00:51:04;99797.31;;;7.17;100.00
65557;BME280;52200;53.490;14.376;2023-03-26T00:53:31;99795.75;;;7.13;100.00
65557;BME280;52200;53.490;14.376;2023-03-26T00:55:56;99793.34;;;7.08;100.00
65557;BME280;52200;53.490;14.376;2023-03-26T00:58:25;99792.94;;;7.22;100.00
65557;BME280;52200;53.490;14.376;2023-03-26T01:00:55;99788.06;;;7.16;100.00
65557;BME280;52200;53.490;14.376;2023-03-26T01:03:23;99784.69;;;7.17;100.00
65557;BME280;52200;53.490;14.376;2023-03-26T01:05:57;99788.22;;;7.12;100.00
65557;BME280;52200;53.490;14.376;2023-03-26T01:08:37;99794.69;;;6.89;100.00
65557;BME280;52200;53.490;14.376;2023-03-26T01:11:31;99795.56;;;6.88;100.00
65557;BME280;52200;53.490;14.376;2023-03-26T01:14:00;99791.72;;;6.74;100.00
65557;BME280;52200;53.490;14.376;2023-03-26T01:16:42;99793.69;;;6.63;100.00
65557;BME280;52200;53.490;14.376;2023-03-26T01:19:30;99800.00;;;6.80;100.00
65557;BME280;52200;53.490;14.376;2023-03-26T01:21:58;99812.09;;;6.67;100.00
65557;BME280;52200;53.490;14.376;2023-03-26T01:24:23;99803.47;;;6.75;100.00
65557;BME280;52200;53.490;14.376;2023-03-26T01:27:27;99816.00;;;6.78;99.80
65557;BME280;52200;53.490;14.376;2023-03-26T01:30:16;99817.75;;;6.76;100.00
65557;BME280;52200;53.490;14.376;2023-03-26T01:40:59;99818.75;;;6.69;100.00
65557;BME280;52200;53.490;14.376;2023-03-26T01:43:45;99820.66;;;6.61;100.00
65557;BME280;52200;53.490;14.376;2023-03-26T01:46:14;99822.94;;;6.70;100.00
65557;BME280;52200;53.490;14.376;2023-03-26T01:48:42;99827.38;;;6.60;100.00
65557;BME280;52200;53.490;14.376;2023-03-26T01:51:09;99827.22;;;6.68;100.00
65557;BME280;52200;53.490;14.376;2023-03-26T01:53:41;99829.38;;;6.82;100.00
65557;BME280;52200;53.490;14.376;2023-03-26T01:56:10;99829.34;;;6.84;99.44
65557;BME280;52200;53.490;14.376;2023-03-26T01:59:05;99837.16;;;6.74;99.73
65557;BME280;52200;53.490;14.376;2023-03-26T02:01:53;99835.19;;;6.84;99.74
65557;BME280;52200;53.490;14.376;2023-03-26T02:04:33;99831.63;;;6.93;98.80
65557;BME280;52200;53.490;14.376;2023-03-26T02:07:12;99837.06;;;6.77;99.78
65557;BME280;52200;53.490;14.376;2023-03-26T02:09:45;99833.59;;;6.82;99.76
65557;BME280;52200;53.490;14.376;2023-03-26T02:12:15;99828.75;;;6.74;99.54
65557;BME280;52200;53.490;14.376;2023-03-26T02:14:42;99837.13;;;6.76;99.65
65557;BME280;52200;53.490;14.376;2023-03-26T02:17:09;99831.81;;;6.87;99.84
65557;BME280;52200;53.490;14.376;2023-03-26T02:19:36;99840.13;;;6.89;99.63
65557;BME280;52200;53.490;14.376;2023-03-26T02:22:01;99846.06;;;6.88;99.28
65557;BME280;52200;53.490;14.376;2023-03-26T02:24:27;99839.22;;;6.91;99.02
65557;BME280;52200;53.490;14.376;2023-03-26T02:26:53;99842.47;;;6.97;98.72
65557;BME280;52200;53.490;14.376;2023-03-26T02:29:18;99845.94;;;6.92;99.23
65557;BME280;52200;53.490;14.376;2023-03-26T02:31:47;99842.44;;;6.98;98.81
65557;BME280;52200;53.490;14.376;2023-03-26T02:34:14;99836.19;;;7.12;97.67
65557;BME280;52200;53.490;14.376;2023-03-26T02:36:39;99842.72;;;7.19;97.38
65557;BME280;52200;53.490;14.376;2023-03-26T02:39:10;99848.63;;;7.19;97.46
65557;BME280;52200;53.490;14.376;2023-03-26T02:41:38;99850.06;;;6.95;97.54
65557;BME280;52200;53.490;14.376;2023-03-26T02:44:04;99851.59;;;7.02;98.37
65557;BME280;52200;53.490;14.376;2023-03-26T02:46:31;99857.03;;;6.87;98.56
65557;BME280;52200;53.490;14.376;2023-03-26T02:48:57;99850.28;;;6.87;98.93
65557;BME280;52200;53.490;14.376;2023-03-26T02:51:23;99856.72;;;6.99;98.46
65557;BME280;52200;53.490;14.376;2023-03-26T02:53:49;99856.94;;;6.90;99.67
65557;BME280;52200;53.490;14.376;2023-03-26T02:56:15;99859.66;;;7.15;98.69
65557;BME280;52200;53.490;14.376;2023-03-26T02:58:40;99863.38;;;7.02;98.08
65557;BME280;52200;53.490;14.376;2023-03-26T03:01:06;99867.44;;;7.07;98.29
65557;BME280;52200;53.490;14.376;2023-03-26T03:03:32;99864.69;;;7.15;97.52
65557;BME280;52200;53.490;14.376;2023-03-26T03:05:58;99866.34;;;6.85;98.29
65557;BME280;52200;53.490;14.376;2023-03-26T03:08:26;99868.78;;;6.88;98.06
65557;BME280;52200;53.490;14.376;2023-03-26T03:11:07;99869.31;;;6.66;98.93
65557;BME280;52200;53.490;14.376;2023-03-26T03:13:33;99877.16;;;6.55;100.00
65557;BME280;52200;53.490;14.376;2023-03-26T03:15:58;99884.97;;;6.79;98.89
65557;BME280;52200;53.490;14.376;2023-03-26T03:18:24;99879.03;;;6.82;99.05
65557;BME280;52200;53.490;14.376;2023-03-26T03:20:49;99875.78;;;6.76;97.92
65557;BME280;52200;53.490;14.376;2023-03-26T03:23:15;99883.25;;;6.81;98.31
65557;BME280;52200;53.490;14.376;2023-03-26T03:25:41;99888.25;;;6.83;98.40
65557;BME280;52200;53.490;14.376;2023-03-26T03:28:07;99887.59;;;6.76;98.64
65557;BME280;52200;53.490;14.376;2023-03-26T03:30:33;99884.00;;;6.85;98.25
65557;BME280;52200;53.490;14.376;2023-03-26T03:32:58;99887.34;;;6.87;98.02
65557;BME280;52200;53.490;14.376;2023-03-26T03:35:25;99899.31;;;6.78;98.65
65557;BME280;52200;53.490;14.376;2023-03-26T03:37:52;99900.16;;;6.77;98.80
65557;BME280;52200;53.490;14.376;2023-03-26T03:40:17;99905.47;;;6.67;99.15
65557;BME280;52200;53.490;14.376;2023-03-26T03:42:44;99902.38;;;6.55;100.00
65557;BME280;52200;53.490;14.376;2023-03-26T03:45:10;99909.63;;;6.69;100.00
65557;BME280;52200;53.490;14.376;2023-03-26T03:47:35;99908.13;;;6.62;100.00
65557;BME280;52200;53.490;14.376;2023-03-26T03:50:01;99915.81;;;6.56;100.00
65557;BME280;52200;53.490;14.376;2023-03-26T03:52:26;99915.81;;;6.57;100.00
65557;BME280;52200;53.490;14.376;2023-03-26T03:54:53;99909.13;;;6.55;100.00
65557;BME280;52200;53.490;14.376;2023-03-26T03:57:18;99920.03;;;6.55;100.00
65557;BME280;52200;53.490;14.376;2023-03-26T03:59:46;99918.06;;;6.68;100.00
65557;BME280;52200;53.490;14.376;2023-03-26T04:02:11;99925.91;;;6.56;99.60
65557;BME280;52200;53.490;14.376;2023-03-26T04:04:37;99921.38;;;6.34;99.90
65557;BME280;52200;53.490;14.376;2023-03-26T04:07:03;99931.22;;;6.43;100.00
65557;BME280;52200;53.490;14.376;2023-03-26T04:09:28;99922.22;;;6.33;99.63
65557;BME280;52200;53.490;14.376;2023-03-26T04:11:54;99922.31;;;6.30;100.00
65557;BME280;52200;53.490;14.376;2023-03-26T04:14:19;99934.28;;;6.19;99.77
65557;BME280;52200;53.490;14.376;2023-03-26T04:16:45;99937.66;;;6.19;100.00
65557;BME280;52200;53.490;14.376;2023-03-26T04:19:13;99932.66;;;6.16;100.00
65557;BME280;52200;53.490;14.376;2023-03-26T04:21:38;99940.22;;;6.16;100.00
65557;BME280;52200;53.490;14.376;2023-03-26T04:24:07;99935.63;;;6.35;99.66
65557;BME280;52200;53.490;14.376;2023-03-26T04:26:33;99932.16;;;6.39;99.09
65557;BME280;52200;53.490;14.376;2023-03-26T04:29:01;99934.59;;;6.44;98.83
65557;BME280;52200;53.490;14.376;2023-03-26T04:31:28;99928.97;;;6.31;98.94
65557;BME280;52200;53.490;14.376;2023-03-26T04:33:57;99930.31;;;6.48;97.52
65557;BME280;52200;53.490;14.376;2023-03-26T04:36:29;99934.13;;;6.28;96.95
65557;BME280;52200;53.490;14.376;2023-03-26T04:38:57;99927.03;;;6.05;98.46
65557;BME280;52200;53.490;14.376;2023-03-26T04:41:26;99930.50;;;6.01;98.33
65557;BME280;52200;53.490;14.376;2023-03-26T04:43:53;99934.50;;;6.09;97.60
65557;BME280;52200;53.490;14.376;2023-03-26T04:46:19;99947.16;;;6.08;98.27
65557;BME280;52200;53.490;14.376;2023-03-26T04:48:48;99949.81;;;6.00;97.90
65557;BME280;52200;53.490;14.376;2023-03-26T04:51:14;99945.63;;;6.01;98.11
65557;BME280;52200;53.490;14.376;2023-03-26T04:53:57;99954.06;;;5.96;98.31
65557;BME280;52200;53.490;14.376;2023-03-26T04:56:57;99949.84;;;5.97;99.33
65557;BME280;52200;53.490;14.376;2023-03-26T04:59:28;99947.91;;;6.11;99.43
65557;BME280;52200;53.490;14.376;2023-03-26T05:01:58;99948.94;;;6.42;98.01
65557;BME280;52200;53.490;14.376;2023-03-26T05:04:24;99946.28;;;6.48;97.47
65557;BME280;52200;53.490;14.376;2023-03-26T05:06:51;99955.53;;;6.48;96.92
65557;BME280;52200;53.490;14.376;2023-03-26T05:09:17;99944.81;;;6.38;97.04
65557;BME280;52200;53.490;14.376;2023-03-26T05:11:42;99950.13;;;6.63;96.66
65557;BME280;52200;53.490;14.376;2023-03-26T05:14:08;99960.75;;;6.77;94.80
65557;BME280;52200;53.490;14.376;2023-03-26T05:16:34;99949.06;;;6.73;94.85
65557;BME280;52200;53.490;14.376;2023-03-26T05:19:00;99948.22;;;6.74;94.35
65557;BME280;52200;53.490;14.376;2023-03-26T05:21:25;99948.56;;;6.59;95.16
65557;BME280;52200;53.490;14.376;2023-03-26T05:23:51;99951.09;;;6.59;94.75
65557;BME280;52200;53.490;14.376;2023-03-26T05:26:16;99955.81;;;6.73;94.32
65557;BME280;52200;53.490;14.376;2023-03-26T05:28:42;99943.69;;;6.51;94.50
65557;BME280;52200;53.490;14.376;2023-03-26T05:31:08;99951.28;;;6.50;95.19
65557;BME280;52200;53.490;14.376;2023-03-26T05:33:34;99955.03;;;6.69;95.71
65557;BME280;52200;53.490;14.376;2023-03-26T05:36:01;99963.28;;;6.77;95.18
65557;BME280;52200;53.490;14.376;2023-03-26T05:38:28;99960.09;;;6.69;94.58
65557;BME280;52200;53.490;14.376;2023-03-26T05:41:01;99958.16;;;6.81;94.42
65557;BME280;52200;53.490;14.376;2023-03-26T05:43:28;99958.22;;;6.77;94.46
65557;BME280;52200;53.490;14.376;2023-03-26T05:45:53;99953.56;;;6.62;94.88
65557;BME280;52200;53.490;14.376;2023-03-26T05:48:19;99955.03;;;6.69;94.89
65557;BME280;52200;53.490;14.376;2023-03-26T05:50:52;99947.47;;;6.71;94.97
65557;BME280;52200;53.490;14.376;2023-03-26T05:53:18;99954.31;;;7.00;94.14
65557;BME280;52200;53.490;14.376;2023-03-26T05:55:45;99950.47;;;7.20;93.57
65557;BME280;52200;53.490;14.376;2023-03-26T05:58:15;99945.72;;;7.07;92.52
65557;BME280;52200;53.490;14.376;2023-03-26T06:00:40;99952.63;;;7.35;91.81
65557;BME280;52200;53.490;14.376;2023-03-26T06:03:06;99956.00;;;7.34;91.87
65557;BME280;52200;53.490;14.376;2023-03-26T06:05:37;99958.28;;;7.10;92.27
65557;BME280;52200;53.490;14.376;2023-03-26T06:08:03;99951.78;;;7.00;93.61
65557;BME280;52200;53.490;14.376;2023-03-26T06:10:28;99956.06;;;6.98;93.22
65557;BME280;52200;53.490;14.376;2023-03-26T06:12:54;99954.91;;;7.12;91.88
65557;BME280;52200;53.490;14.376;2023-03-26T06:15:19;99957.19;;;7.52;91.38
65557;BME280;52200;53.490;14.376;2023-03-26T06:17:45;99959.56;;;7.90;90.19
65557;BME280;52200;53.490;14.376;2023-03-26T06:20:11;99955.72;;;7.77;89.50
65557;BME280;52200;53.490;14.376;2023-03-26T06:22:37;99951.56;;;7.74;89.00
65557;BME280;52200;53.490;14.376;2023-03-26T06:25:02;99962.50;;;8.06;88.52
65557;BME280;52200;53.490;14.376;2023-03-26T06:27:28;99969.22;;;8.05;87.02
65557;BME280;52200;53.490;14.376;2023-03-26T06:29:53;99962.94;;;7.59;88.01
65557;BME280;52200;53.490;14.376;2023-03-26T06:32:19;99965.03;;;7.74;88.12
65557;BME280;52200;53.490;14.376;2023-03-26T06:34:44;99962.13;;;7.57;88.45
65557;BME280;52200;53.490;14.376;2023-03-26T06:37:10;99982.34;;;7.57;89.58
65557;BME280;52200;53.490;14.376;2023-03-26T06:39:35;99974.88;;;7.54;88.93
65557;BME280;52200;53.490;14.376;2023-03-26T06:42:00;99975.16;;;7.74;87.81
65557;BME280;52200;53.490;14.376;2023-03-26T06:44:26;99986.47;;;7.61;88.08
65557;BME280;52200;53.490;14.376;2023-03-26T06:46:51;99984.88;;;7.57;88.25
65557;BME280;52200;53.490;14.376;2023-03-26T06:49:16;99992.56;;;7.54;88.87
65557;BME280;52200;53.490;14.376;2023-03-26T06:51:42;99991.09;;;7.45;89.32
65557;BME280;52200;53.490;14.376;2023-03-26T06:54:08;99995.38;;;7.74;88.31
65557;BME280;52200;53.490;14.376;2023-03-26T06:56:33;99992.59;;;7.84;87.90
65557;BME280;52200;53.490;14.376;2023-03-26T06:58:58;100001.19;;;8.10;87.65
65557;BME280;52200;53.490;14.376;2023-03-26T07:01:24;99993.38;;;8.46;86.29
65557;BME280;52200;53.490;14.376;2023-03-26T07:03:49;100002.88;;;8.67;86.01
65557;BME280;52200;53.490;14.376;2023-03-26T07:06:15;100007.81;;;8.72;86.58
65557;BME280;52200;53.490;14.376;2023-03-26T07:08:40;100004.84;;;8.86;86.51
65557;BME280;52200;53.490;14.376;2023-03-26T07:11:06;100004.88;;;8.58;85.90
65557;BME280;52200;53.490;14.376;2023-03-26T07:13:31;100010.09;;;8.53;86.63
65557;BME280;52200;53.490;14.376;2023-03-26T07:15:57;100005.97;;;8.49;87.09
65557;BME280;52200;53.490;14.376;2023-03-26T07:18:22;100005.22;;;8.45;88.19
65557;BME280;52200;53.490;14.376;2023-03-26T07:20:47;100000.69;;;8.57;87.28
65557;BME280;52200;53.490;14.376;2023-03-26T07:23:13;100005.41;;;8.67;86.77
65557;BME280;52200;53.490;14.376;2023-03-26T07:25:44;100003.28;;;8.82;86.24
65557;BME280;52200;53.490;14.376;2023-03-26T07:28:35;100000.28;;;8.97;86.04
65557;BME280;52200;53.490;14.376;2023-03-26T07:31:23;100002.84;;;9.23;84.85
65557;BME280;52200;53.490;14.376;2023-03-26T07:33:52;100011.13;;;9.28;84.33
65557;BME280;52200;53.490;14.376;2023-03-26T07:36:29;100011.03;;;9.04;83.05
65557;BME280;52200;53.490;14.376;2023-03-26T07:39:17;100007.38;;;8.86;82.67
65557;BME280;52200;53.490;14.376;2023-03-26T07:47:10;100003.56;;;9.26;80.92
65557;BME280;52200;53.490;14.376;2023-03-26T07:49:39;100006.16;;;9.50;81.02
65557;BME280;52200;53.490;14.376;2023-03-26T07:52:05;99999.22;;;9.55;80.21
65557;BME280;52200;53.490;14.376;2023-03-26T07:54:30;100003.16;;;9.39;79.87
65557;BME280;52200;53.490;14.376;2023-03-26T07:57:04;100002.59;;;9.56;79.60
65557;BME280;52200;53.490;14.376;2023-03-26T07:59:43;100001.50;;;9.63;78.54
65557;BME280;52200;53.490;14.376;2023-03-26T08:05:29;100010.31;;;9.00;77.44
65557;BME280;52200;53.490;14.376;2023-03-26T08:11:10;100001.41;;;9.41;79.23
65557;BME280;52200;53.490;14.376;2023-03-26T08:14:41;100002.25;;;9.90;77.63
65557;BME280;52200;53.490;14.376;2023-03-26T08:16:52;100009.31;;;10.52;76.10
65557;BME280;52200;53.490;14.376;2023-03-26T08:22:03;100004.16;;;10.07;75.46
65557;BME280;52200;53.490;14.376;2023-03-26T08:24:46;100000.91;;;10.27;75.84
65557;BME280;52200;53.490;14.376;2023-03-26T08:27:38;100009.94;;;9.87;75.90
65557;BME280;52200;53.490;14.376;2023-03-26T08:30:17;100015.84;;;9.12;78.62
65557;BME280;52200;53.490;14.376;2023-03-26T08:32:56;100019.53;;;8.75;80.71
65557;BME280;52200;53.490;14.376;2023-03-26T08:35:23;100026.47;;;8.39;83.33
65557;BME280;52200;53.490;14.376;2023-03-26T08:37:49;100031.34;;;7.84;87.16
65557;BME280;52200;53.490;14.376;2023-03-26T08:40:31;100028.44;;;7.67;89.29
65557;BME280;52200;53.490;14.376;2023-03-26T09:05:49;100034.56;;;10.09;80.62
65557;BME280;52200;53.490;14.376;2023-03-26T09:08:51;100030.31;;;10.57;79.18
65557;BME280;52200;53.490;14.376;2023-03-26T09:14:28;100035.97;;;9.92;79.71
65557;BME280;52200;53.490;14.376;2023-03-26T09:22:52;100038.56;;;9.42;83.30
65557;BME280;52200;53.490;14.376;2023-03-26T09:28:16;100044.03;;;9.55;81.25
65557;BME280;52200;53.490;14.376;2023-03-26T09:33:30;100039.88;;;9.27;79.97
65557;BME280;52200;53.490;14.376;2023-03-26T09:36:19;100044.03;;;9.55;80.17
65557;BME280;52200;53.490;14.376;2023-03-26T09:38:52;100051.16;;;9.68;79.69
65557;BME280;52200;53.490;14.376;2023-03-26T09:41:37;100042.44;;;9.52;78.99
65557;BME280;52200;53.490;14.376;2023-03-26T09:47:50;100041.44;;;9.56;77.03
65557;BME280;52200;53.490;14.376;2023-03-26T09:53:13;100044.66;;;9.61;74.90
65557;BME280;52200;53.490;14.376;2023-03-26T10:03:48;100050.81;;;9.79;74.37
65557;BME280;52200;53.490;14.376;2023-03-26T10:14:31;100043.59;;;9.92;69.88
65557;BME280;52200;53.490;14.376;2023-03-26T10:17:10;100049.22;;;10.00;69.23
65557;BME280;52200;53.490;14.376;2023-03-26T10:22:29;100036.38;;;10.29;69.69
65557;BME280;52200;53.490;14.376;2023-03-26T10:28:30;100043.28;;;10.93;67.29
65557;BME280;52200;53.490;14.376;2023-03-26T10:31:25;100034.31;;;10.62;66.99
65557;BME280;52200;53.490;14.376;2023-03-26T10:34:01;100043.41;;;10.46;68.03
65557;BME280;52200;53.490;14.376;2023-03-26T10:36:33;100040.72;;;9.78;66.27
65557;BME280;52200;53.490;14.376;2023-03-26T10:42:19;100042.69;;;9.70;66.83
65557;BME280;52200;53.490;14.376;2023-03-26T10:45:11;100039.63;;;9.85;67.11
65557;BME280;52200;53.490;14.376;2023-03-26T10:53:48;100042.06;;;10.59;64.26
65557;BME280;52200;53.490;14.376;2023-03-26T10:59:05;100041.69;;;10.69;65.03
65557;BME280;52200;53.490;14.376;2023-03-26T11:01:52;100034.16;;;10.67;62.94
65557;BME280;52200;53.490;14.376;2023-03-26T11:04:42;100040.34;;;10.60;60.93
65557;BME280;52200;53.490;14.376;2023-03-26T11:09:59;100040.75;;;10.93;60.38
65557;BME280;52200;53.490;14.376;2023-03-26T11:13:04;100050.25;;;10.88;61.54
65557;BME280;52200;53.490;14.376;2023-03-26T11:15:39;100055.16;;;11.15;60.42
65557;BME280;52200;53.490;14.376;2023-03-26T11:18:26;100051.13;;;11.09;60.54
65557;BME280;52200;53.490;14.376;2023-03-26T11:26:53;100056.69;;;10.53;62.20
65557;BME280;52200;53.490;14.376;2023-03-26T11:32:14;100059.31;;;9.53;65.56
65557;BME280;52200;53.490;14.376;2023-03-26T11:34:56;100063.59;;;9.51;64.23
65557;BME280;52200;53.490;14.376;2023-03-26T11:37:41;100064.84;;;9.64;65.18
65557;BME280;52200;53.490;14.376;2023-03-26T11:40:19;100059.53;;;9.96;62.74
65557;BME280;52200;53.490;14.376;2023-03-26T11:42:54;100065.41;;;10.22;59.64
65557;BME280;52200;53.490;14.376;2023-03-26T11:45:23;100059.16;;;10.54;59.68
65557;BME280;52200;53.490;14.376;2023-03-26T11:48:07;100053.69;;;10.87;59.63
65557;BME280;52200;53.490;14.376;2023-03-26T11:50:38;100050.13;;;10.91;58.34
65557;BME280;52200;53.490;14.376;2023-03-26T11:53:14;100058.69;;;11.11;58.26
65557;BME280;52200;53.490;14.376;2023-03-26T11:55:58;100062.19;;;10.86;59.63
65557;BME280;52200;53.490;14.376;2023-03-26T11:58:51;100065.69;;;11.06;59.38
65557;BME280;52200;53.490;14.376;2023-03-26T12:01:27;100058.59;;;11.35;58.76
65557;BME280;52200;53.490;14.376;2023-03-26T12:04:02;100059.16;;;10.78;58.11
65557;BME280;52200;53.490;14.376;2023-03-26T12:06:28;100050.00;;;10.50;58.50
65557;BME280;52200;53.490;14.376;2023-03-26T12:08:54;100049.81;;;11.21;59.23
65557;BME280;52200;53.490;14.376;2023-03-26T12:11:24;100047.25;;;12.04;59.03
65557;BME280;52200;53.490;14.376;2023-03-26T12:13:58;100044.09;;;12.18;57.84
65557;BME280;52200;53.490;14.376;2023-03-26T12:16:25;100045.19;;;12.50;57.95
65557;BME280;52200;53.490;14.376;2023-03-26T12:19:03;100049.94;;;12.39;58.74
65557;BME280;52200;53.490;14.376;2023-03-26T12:21:45;100052.72;;;12.15;59.38
65557;BME280;52200;53.490;14.376;2023-03-26T12:24:34;100044.06;;;11.78;58.45
65557;BME280;52200;53.490;14.376;2023-03-26T12:32:46;100054.03;;;12.61;55.72
65557;BME280;52200;53.490;14.376;2023-03-26T12:35:23;100054.78;;;12.45;56.41
65557;BME280;52200;53.490;14.376;2023-03-26T12:37:51;100053.59;;;11.93;56.97
65557;BME280;52200;53.490;14.376;2023-03-26T12:40:34;100051.50;;;12.22;57.04
65557;BME280;52200;53.490;14.376;2023-03-26T12:43:03;100048.94;;;11.64;57.12
65557;BME280;52200;53.490;14.376;2023-03-26T12:45:30;100049.63;;;12.28;57.51
65557;BME280;52200;53.490;14.376;2023-03-26T12:47:57;100053.09;;;12.44;57.21
65557;BME280;52200;53.490;14.376;2023-03-26T12:50:31;100050.13;;;12.53;57.03
65557;BME280;52200;53.490;14.376;2023-03-26T13:04:11;100044.44;;;13.39;56.47
65557;BME280;52200;53.490;14.376;2023-03-26T13:06:51;100045.44;;;13.00;54.70
65557;BME280;52200;53.490;14.376;2023-03-26T13:12:25;100046.16;;;14.06;53.89
65557;BME280;52200;53.490;14.376;2023-03-26T13:20:48;100042.22;;;12.02;53.22
65557;BME280;52200;53.490;14.376;2023-03-26T13:41:54;100030.81;;;10.19;60.19
65557;BME280;52200;53.490;14.376;2023-03-26T13:47:25;100030.72;;;10.46;58.94
65557;BME280;52200;53.490;14.376;2023-03-26T13:49:57;100028.03;;;10.49;59.02
65557;BME280;52200;53.490;14.376;2023-03-26T13:52:46;100030.88;;;10.63;59.26
65557;BME280;52200;53.490;14.376;2023-03-26T13:55:24;100031.59;;;10.67;58.65
65557;BME280;52200;53.490;14.376;2023-03-26T13:58:23;100022.59;;;11.03;57.15
65557;BME280;52200;53.490;14.376;2023-03-26T14:01:03;100025.09;;;11.25;59.02
65557;BME280;52200;53.490;14.376;2023-03-26T14:03:54;100026.59;;;11.08;57.72
65557;BME280;52200;53.490;14.376;2023-03-26T14:06:33;100022.91;;;11.16;57.31
65557;BME280;52200;53.490;14.376;2023-03-26T14:09:11;100022.31;;;10.88;57.41
65557;BME280;52200;53.490;14.376;2023-03-26T14:11:46;100021.31;;;10.48;57.57
65557;BME280;52200;53.490;14.376;2023-03-26T14:14:25;100027.75;;;10.79;58.46
65557;BME280;52200;53.490;14.376;2023-03-26T14:16:58;100018.56;;;10.97;57.76
65557;BME280;52200;53.490;14.376;2023-03-26T14:22:58;100027.22;;;10.71;55.54
65557;BME280;52200;53.490;14.376;2023-03-26T14:31:15;100036.44;;;10.04;60.27
65557;BME280;52200;53.490;14.376;2023-03-26T14:34:21;100031.88;;;10.37;59.67
65557;BME280;52200;53.490;14.376;2023-03-26T14:40:05;100037.09;;;9.60;61.22
65557;BME280;52200;53.490;14.376;2023-03-26T14:43:05;100036.00;;;9.67;61.35
65557;BME280;52200;53.490;14.376;2023-03-26T14:51:27;100040.06;;;9.73;61.74
65557;BME280;52200;53.490;14.376;2023-03-26T14:54:05;100044.94;;;9.27;62.29
65557;BME280;52200;53.490;14.376;2023-03-26T15:08:09;100051.31;;;9.39;61.66
65557;BME280;52200;53.490;14.376;2023-03-26T15:14:02;100062.13;;;9.44;62.03
65557;BME280;52200;53.490;14.376;2023-03-26T15:22:23;100072.66;;;9.58;60.95
65557;BME280;52200;53.490;14.376;2023-03-26T15:27:56;100082.91;;;9.28;60.33
65557;BME280;52200;53.490;14.376;2023-03-26T15:38:20;100081.16;;;8.45;60.62
65557;BME280;52200;53.490;14.376;2023-03-26T15:49:15;100085.16;;;8.52;61.23
65557;BME280;52200;53.490;14.376;2023-03-26T15:52:18;100082.38;;;8.30;61.79
65557;BME280;52200;53.490;14.376;2023-03-26T16:00:25;100091.66;;;8.61;60.02
65557;BME280;52200;53.490;14.376;2023-03-26T16:08:56;100100.06;;;8.32;59.90
65557;BME280;52200;53.490;14.376;2023-03-26T16:11:53;100095.25;;;8.22;60.42
65557;BME280;52200;53.490;14.376;2023-03-26T16:16:57;100097.19;;;8.13;59.78
65557;BME280;52200;53.490;14.376;2023-03-26T16:19:49;100102.47;;;8.05;60.22
65557;BME280;52200;53.490;14.376;2023-03-26T16:22:40;100107.34;;;7.80;61.32
65557;BME280;52200;53.490;14.376;2023-03-26T16:27:42;100108.19;;;8.12;61.57
65557;BME280;52200;53.490;14.376;2023-03-26T16:30:29;100112.53;;;8.08;60.66
65557;BME280;52200;53.490;14.376;2023-03-26T16:33:03;100113.13;;;7.85;60.83
65557;BME280;52200;53.490;14.376;2023-03-26T16:35:58;100114.09;;;7.79;61.19
65557;BME280;52200;53.490;14.376;2023-03-26T16:38:26;100117.03;;;7.62;61.34
65557;BME280;52200;53.490;14.376;2023-03-26T16:41:25;100117.38;;;7.48;62.46
65557;BME280;52200;53.490;14.376;2023-03-26T16:44:04;100124.91;;;7.50;61.97
65557;BME280;52200;53.490;14.376;2023-03-26T16:46:46;100131.09;;;7.38;62.15
65557;BME280;52200;53.490;14.376;2023-03-26T16:55:24;100134.53;;;7.34;62.16
65557;BME280;52200;53.490;14.376;2023-03-26T17:03:42;100133.81;;;6.91;64.04
65557;BME280;52200;53.490;14.376;2023-03-26T17:06:18;100141.22;;;6.56;65.51
65557;BME280;52200;53.490;14.376;2023-03-26T17:08:58;100138.97;;;6.42;65.85
65557;BME280;52200;53.490;14.376;2023-03-26T17:11:40;100135.66;;;6.40;66.93
65557;BME280;52200;53.490;14.376;2023-03-26T17:14:21;100149.13;;;6.39;66.30
65557;BME280;52200;53.490;14.376;2023-03-26T17:19:29;100156.31;;;6.12;66.68
65557;BME280;52200;53.490;14.376;2023-03-26T17:22:12;100145.66;;;5.95;68.26
65557;BME280;52200;53.490;14.376;2023-03-26T17:24:56;100149.34;;;5.77;68.77
65557;BME280;52200;53.490;14.376;2023-03-26T17:35:46;100170.78;;;5.46;71.04
65557;BME280;52200;53.490;14.376;2023-03-26T17:40:44;100167.53;;;5.38;71.52